createdAt,value
2022-12-23T00:01:24.054Z,8.00
2022-12-23T00:03:53.490Z,3.80
2022-12-23T00:06:22.064Z,2.95
2022-12-23T00:08:50.244Z,5.68
2022-12-23T00:11:20.783Z,4.03
2022-12-23T00:14:06.654Z,4.78
2022-12-23T00:16:36.684Z,3.42
2022-12-23T00:19:06.766Z,4.10
2022-12-23T00:21:35.950Z,6.55
2022-12-23T00:24:04.009Z,5.70
2022-12-23T00:26:32.029Z,4.30
2022-12-23T00:29:00.614Z,4.43
2022-12-23T00:31:28.754Z,5.05
2022-12-23T00:33:56.880Z,4.57
2022-12-23T00:36:28.604Z,4.50
2022-12-23T00:39:14.639Z,4.38
2022-12-23T00:42:00.149Z,2.80
2022-12-23T00:44:28.186Z,4.28
2022-12-23T00:46:56.234Z,3.95
2022-12-23T00:49:41.966Z,2.92
2022-12-23T00:52:12.916Z,3.15
2022-12-23T00:54:41.087Z,3.35
2022-12-23T00:57:09.068Z,5.55
2022-12-23T00:59:37.125Z,5.55
2022-12-23T01:02:22.580Z,3.15
2022-12-23T01:05:08.272Z,4.95
2022-12-23T01:07:37.603Z,4.40
2022-12-23T01:10:06.315Z,2.35
2022-12-23T01:12:34.275Z,5.65
2022-12-23T01:15:02.423Z,1.70
2022-12-23T01:17:30.947Z,3.20
2022-12-23T01:19:58.962Z,3.42
2022-12-23T01:22:26.977Z,1.88
2022-12-23T01:24:56.469Z,1.83
2022-12-23T01:27:24.434Z,1.88
2022-12-23T01:29:52.381Z,3.22
2022-12-23T01:32:20.436Z,2.15
2022-12-23T01:34:48.526Z,4.20
2022-12-23T01:37:16.524Z,2.72
2022-12-23T01:39:44.566Z,2.13
2022-12-23T01:42:33.658Z,2.47
2022-12-23T01:45:03.051Z,2.47
2022-12-23T01:47:36.967Z,1.52
2022-12-23T01:50:10.383Z,2.67
2022-12-23T01:52:44.622Z,2.97
2022-12-23T01:55:15.377Z,2.45
2022-12-23T01:57:46.076Z,3.10
2022-12-23T02:00:32.681Z,2.80
2022-12-23T02:03:17.813Z,2.67
2022-12-23T02:05:47.298Z,5.68
2022-12-23T02:08:34.690Z,3.67
2022-12-23T02:11:38.965Z,3.40
2022-12-23T02:14:42.611Z,2.25
2022-12-23T02:17:18.765Z,3.97
2022-12-23T02:20:11.148Z,22.83
2022-12-23T02:23:09.311Z,11.98
2022-12-23T02:25:54.053Z,8.07
2022-12-23T02:28:47.235Z,9.68
2022-12-23T02:31:25.519Z,8.07
2022-12-23T02:34:01.752Z,6.57
2022-12-23T02:36:39.372Z,3.67
2022-12-23T02:39:10.944Z,2.08
2022-12-23T02:41:44.283Z,4.38
2022-12-23T02:44:30.259Z,4.63
2022-12-23T02:47:05.470Z,2.25
2022-12-23T02:49:37.962Z,3.58
2022-12-23T02:52:11.518Z,2.88
2022-12-23T02:54:46.433Z,4.72
2022-12-23T02:57:18.930Z,2.88
2022-12-23T02:59:51.015Z,2.78
2022-12-23T03:02:21.428Z,2.47
2022-12-23T03:04:49.787Z,3.08
2022-12-23T03:07:21.755Z,3.05
2022-12-23T03:09:59.171Z,1.92
2022-12-23T03:12:38.304Z,2.95
2022-12-23T03:15:25.662Z,3.72
2022-12-23T03:18:05.817Z,2.88
2022-12-23T03:20:44.025Z,1.77
2022-12-23T03:23:22.929Z,3.03
2022-12-23T03:25:59.652Z,2.13
2022-12-23T03:28:35.124Z,2.42
2022-12-23T03:31:08.892Z,1.38
2022-12-23T03:33:42.087Z,1.52
2022-12-23T03:36:16.725Z,0.77
2022-12-23T03:38:46.170Z,0.95
2022-12-23T03:41:19.796Z,1.20
2022-12-23T03:43:53.369Z,1.42
2022-12-23T03:46:29.624Z,0.60
2022-12-23T03:49:02.062Z,0.93
2022-12-23T03:51:35.132Z,0.95
2022-12-23T03:54:05.864Z,0.85
2022-12-23T03:56:38.463Z,1.33
2022-12-23T03:59:13.857Z,0.73
2022-12-23T04:01:50.030Z,0.63
2022-12-23T04:04:25.947Z,0.70
2022-12-23T04:06:58.584Z,0.40
2022-12-23T04:09:29.210Z,0.50
2022-12-23T04:11:59.069Z,0.40
2022-12-23T04:14:27.044Z,0.10
2022-12-23T04:16:57.258Z,0.95
2022-12-23T04:19:26.862Z,0.98
2022-12-23T04:21:56.839Z,1.33
2022-12-23T04:24:25.104Z,0.50
2022-12-23T04:26:53.016Z,0.57
2022-12-23T04:29:21.043Z,0.40
2022-12-23T04:31:49.024Z,0.43
2022-12-23T04:34:17.127Z,0.20
2022-12-23T04:36:46.463Z,0.20
2022-12-23T04:39:14.538Z,0.20
2022-12-23T04:41:42.623Z,0.10
2022-12-23T04:44:10.631Z,0.15
2022-12-23T04:46:38.594Z,0.52
2022-12-23T04:49:06.765Z,0.20
2022-12-23T04:51:35.305Z,0.10
2022-12-23T04:54:05.036Z,0.60
2022-12-23T04:56:33.017Z,0.20
2022-12-23T04:59:02.352Z,0.10
2022-12-23T05:01:30.844Z,0.20
2022-12-23T05:03:58.969Z,0.20
2022-12-23T05:06:26.976Z,0.10
2022-12-23T05:08:55.047Z,0.10
2022-12-23T05:11:24.405Z,0.10
2022-12-23T05:13:52.411Z,0.10
2022-12-23T05:16:20.725Z,1.77
2022-12-23T05:18:48.770Z,0.20
2022-12-23T05:21:17.016Z,0.38
2022-12-23T05:23:45.135Z,0.10
2022-12-23T05:26:13.132Z,0.10
2022-12-23T05:28:42.999Z,0.95
2022-12-23T05:31:11.857Z,0.28
2022-12-23T05:33:40.295Z,0.10
2022-12-23T05:36:08.828Z,0.10
2022-12-23T05:38:36.811Z,0.43
2022-12-23T05:41:05.655Z,0.22
2022-12-23T05:43:33.822Z,0.17
2022-12-23T05:46:03.087Z,0.28
2022-12-23T05:48:31.123Z,1.30
2022-12-23T05:50:59.151Z,0.10
2022-12-23T05:53:27.441Z,0.25
2022-12-23T05:55:55.446Z,0.10
2022-12-23T05:58:23.999Z,0.20
2022-12-23T06:00:51.982Z,0.55
2022-12-23T06:03:22.103Z,0.10
2022-12-23T06:05:51.927Z,1.30
2022-12-23T06:08:20.036Z,0.22
2022-12-23T06:10:48.352Z,0.10
2022-12-23T06:13:16.302Z,0.10
2022-12-23T06:15:44.438Z,0.47
2022-12-23T06:18:12.513Z,1.00
2022-12-23T06:20:41.897Z,0.20
2022-12-23T06:23:09.826Z,0.00
2022-12-23T06:25:37.798Z,0.00
2022-12-23T06:28:07.648Z,0.10
2022-12-23T06:30:35.853Z,0.63
2022-12-23T06:33:04.032Z,0.28
2022-12-23T06:35:32.040Z,0.52
2022-12-23T06:38:01.356Z,0.45
2022-12-23T06:40:29.811Z,0.30
2022-12-23T06:42:57.822Z,1.10
2022-12-23T06:45:25.834Z,0.10
2022-12-23T06:47:53.934Z,2.17
2022-12-23T06:50:22.035Z,0.10
2022-12-23T06:52:50.079Z,0.10
2022-12-23T06:55:19.533Z,0.10
2022-12-23T06:57:47.468Z,0.00
2022-12-23T07:00:16.885Z,0.13
2022-12-23T07:02:45.076Z,0.50
2022-12-23T07:05:13.176Z,0.00
2022-12-23T07:07:41.418Z,0.80
2022-12-23T07:10:10.739Z,0.17
2022-12-23T07:12:42.634Z,0.03
2022-12-23T07:15:14.067Z,0.10
2022-12-23T07:17:41.910Z,0.20
2022-12-23T07:20:12.984Z,0.10
2022-12-23T07:22:40.966Z,0.10
2022-12-23T07:25:09.907Z,0.32
2022-12-23T07:27:37.987Z,2.08
2022-12-23T07:30:08.999Z,2.17
2022-12-23T07:32:36.960Z,2.42
2022-12-23T07:35:05.303Z,3.72
2022-12-23T07:37:33.214Z,3.08
2022-12-23T07:40:08.080Z,0.30
2022-12-23T07:42:46.066Z,0.73
2022-12-23T07:45:16.454Z,1.27
2022-12-23T07:47:44.624Z,0.35
2022-12-23T07:50:13.297Z,0.20
2022-12-23T07:52:41.296Z,0.65
2022-12-23T07:55:09.914Z,1.73
2022-12-23T07:57:38.567Z,3.42
2022-12-23T08:00:11.195Z,0.50
2022-12-23T08:02:43.938Z,0.60
2022-12-23T08:05:13.156Z,0.20
2022-12-23T08:07:41.391Z,0.15
2022-12-23T08:10:10.418Z,2.00
2022-12-23T08:12:38.452Z,0.50
2022-12-23T08:15:07.807Z,0.10
2022-12-23T08:17:35.829Z,0.10
2022-12-23T08:20:05.700Z,0.50
2022-12-23T08:22:33.834Z,0.32
2022-12-23T08:25:03.040Z,0.38
2022-12-23T08:27:31.200Z,0.43
2022-12-23T08:29:59.149Z,0.20
2022-12-23T08:32:28.292Z,0.45
2022-12-23T08:34:56.933Z,0.73
2022-12-23T08:37:26.527Z,0.28
2022-12-23T08:39:54.527Z,0.10
2022-12-23T08:42:22.495Z,3.00
2022-12-23T08:44:50.442Z,0.38
2022-12-23T08:47:18.429Z,3.25
2022-12-23T08:49:46.388Z,0.45
2022-12-23T08:52:14.311Z,2.38
2022-12-23T08:54:43.707Z,0.10
2022-12-23T08:57:11.618Z,1.23
2022-12-23T08:59:39.502Z,1.98
2022-12-23T09:02:07.882Z,0.20
2022-12-23T09:04:37.608Z,0.10
2022-12-23T09:07:06.010Z,0.10
2022-12-23T09:09:34.040Z,0.60
2022-12-23T09:12:03.390Z,0.10
2022-12-23T09:14:31.331Z,0.55
2022-12-23T09:16:59.302Z,0.20
2022-12-23T09:19:27.212Z,0.40
2022-12-23T09:21:55.198Z,0.28
2022-12-23T09:24:23.196Z,0.68
2022-12-23T09:26:51.113Z,0.20
2022-12-23T09:29:20.471Z,0.20
2022-12-23T09:31:48.519Z,0.20
2022-12-23T09:34:16.543Z,1.55
2022-12-23T09:36:44.509Z,0.52
2022-12-23T09:39:12.636Z,1.13
2022-12-23T09:41:50.064Z,0.70
2022-12-23T09:44:36.099Z,0.30
2022-12-23T09:47:07.000Z,0.65
2022-12-23T09:49:35.541Z,0.40
2022-12-23T09:52:10.198Z,1.10
2022-12-23T09:54:43.183Z,1.00
2022-12-23T09:57:22.445Z,0.80
2022-12-23T10:00:05.741Z,2.17
2022-12-23T10:02:48.340Z,0.75
2022-12-23T10:05:26.343Z,0.80
2022-12-23T10:07:59.750Z,0.93
2022-12-23T10:10:36.448Z,0.80
2022-12-23T10:13:08.117Z,1.10
2022-12-23T10:15:43.404Z,1.45
2022-12-23T10:18:18.674Z,2.88
2022-12-23T10:20:52.054Z,1.30
2022-12-23T10:23:28.767Z,2.08
2022-12-23T10:25:56.981Z,5.32
2022-12-23T10:28:29.858Z,1.30
2022-12-23T10:31:31.033Z,1.60
2022-12-23T10:34:01.419Z,1.15
2022-12-23T10:36:41.506Z,0.68
2022-12-23T10:39:20.376Z,3.08
2022-12-23T10:41:56.733Z,3.40
2022-12-23T10:44:41.812Z,1.20
2022-12-23T10:47:21.029Z,1.98
2022-12-23T10:50:01.001Z,1.92
2022-12-23T10:52:31.415Z,1.25
2022-12-23T10:54:59.386Z,1.40
2022-12-23T10:57:27.691Z,1.63
2022-12-23T10:59:55.677Z,0.80
2022-12-23T11:02:46.443Z,2.88
2022-12-23T11:05:18.194Z,1.70
2022-12-23T11:07:47.439Z,0.80
2022-12-23T11:10:18.914Z,0.93
2022-12-23T11:12:49.468Z,1.15
2022-12-23T11:15:30.561Z,1.05
2022-12-23T11:18:06.404Z,1.15
2022-12-23T11:20:35.147Z,1.60
2022-12-23T11:23:05.010Z,1.35
2022-12-23T11:25:36.140Z,1.55
2022-12-23T11:28:09.408Z,3.53
2022-12-23T11:30:40.381Z,1.35
2022-12-23T11:33:23.513Z,1.35
2022-12-23T11:36:02.033Z,2.88
2022-12-23T11:38:30.184Z,0.88
2022-12-23T11:40:58.730Z,0.55
2022-12-23T11:43:28.507Z,2.38
2022-12-23T11:46:18.881Z,4.28
2022-12-23T11:48:54.335Z,2.42
2022-12-23T11:51:27.873Z,1.85
2022-12-23T11:54:01.205Z,3.47
2022-12-23T11:56:36.386Z,3.85
2022-12-23T11:59:07.998Z,2.25
2022-12-23T12:01:39.351Z,3.35
2022-12-23T12:04:13.632Z,2.20
2022-12-23T12:06:48.418Z,2.42
2022-12-23T12:09:23.550Z,2.65
2022-12-23T12:11:55.334Z,1.73
2022-12-23T12:14:29.777Z,1.58
2022-12-23T12:17:04.745Z,2.03
2022-12-23T12:19:37.832Z,1.70
2022-12-23T12:22:13.170Z,1.08
2022-12-23T12:24:45.669Z,1.92
2022-12-23T12:27:14.367Z,1.65
2022-12-23T12:29:49.374Z,1.58
2022-12-23T12:32:22.284Z,1.77
2022-12-23T12:34:54.615Z,1.50
2022-12-23T12:37:30.881Z,1.17
2022-12-23T12:40:03.627Z,0.75
2022-12-23T12:42:38.944Z,1.65
2022-12-23T12:45:17.637Z,1.15
2022-12-23T12:47:56.830Z,1.48
2022-12-23T12:50:34.217Z,1.70
2022-12-23T12:53:12.680Z,11.60
2022-12-23T12:55:46.292Z,6.78
2022-12-23T12:58:20.698Z,19.13
2022-12-23T13:01:01.236Z,13.02
2022-12-23T13:03:53.426Z,10.32
2022-12-23T13:06:29.962Z,12.75
2022-12-23T13:09:07.185Z,9.43
2022-12-23T13:11:45.055Z,10.82
2022-12-23T13:14:25.987Z,8.90
2022-12-23T13:17:03.216Z,6.40
2022-12-23T13:19:39.172Z,5.45
2022-12-23T13:22:11.108Z,4.60
2022-12-23T13:24:52.862Z,5.10
2022-12-23T13:27:24.724Z,4.20
2022-12-23T13:30:05.280Z,3.65
2022-12-23T13:33:00.849Z,4.00
2022-12-23T13:35:39.952Z,2.85
2022-12-23T13:38:22.030Z,2.92
2022-12-23T13:41:04.014Z,3.60
2022-12-23T13:43:43.361Z,2.83
2022-12-23T13:46:23.997Z,2.40
2022-12-23T13:49:00.714Z,3.20
2022-12-23T13:51:38.424Z,3.05
2022-12-23T13:54:19.200Z,2.05
2022-12-23T13:56:54.072Z,2.22
2022-12-23T13:59:22.125Z,2.72
2022-12-23T14:01:52.546Z,2.92
2022-12-23T14:04:37.810Z,2.40
2022-12-23T14:07:19.097Z,2.33
2022-12-23T14:09:53.217Z,2.42
2022-12-23T14:12:26.712Z,2.95
2022-12-23T14:15:23.000Z,1.77
2022-12-23T14:18:07.917Z,1.98
2022-12-23T14:20:46.411Z,1.23
2022-12-23T14:23:30.576Z,2.63
2022-12-23T14:26:15.863Z,1.92
2022-12-23T14:28:57.207Z,1.70
2022-12-23T14:31:31.490Z,3.75
2022-12-23T14:34:23.987Z,1.75
2022-12-23T14:37:25.318Z,0.90
2022-12-23T14:39:54.123Z,1.60
2022-12-23T14:42:37.053Z,1.80
2022-12-23T14:45:35.463Z,0.70
2022-12-23T14:48:04.714Z,3.10
2022-12-23T14:50:41.101Z,2.45
2022-12-23T14:53:23.844Z,5.18
2022-12-23T14:56:11.462Z,4.80
2022-12-23T14:59:14.546Z,6.53
2022-12-23T15:01:44.611Z,3.30
2022-12-23T15:04:22.150Z,5.38
2022-12-23T15:06:53.265Z,3.80
2022-12-23T15:09:27.249Z,2.35
2022-12-23T15:11:56.917Z,1.52
2022-12-23T15:14:32.879Z,2.78
2022-12-23T15:17:01.583Z,5.22
2022-12-23T15:19:29.937Z,2.25
2022-12-23T15:22:20.720Z,2.63
2022-12-23T15:24:50.512Z,1.10
2022-12-23T15:27:29.410Z,2.17
2022-12-23T15:30:00.093Z,5.70
2022-12-23T15:32:30.540Z,2.00
2022-12-23T15:35:03.561Z,2.00
2022-12-23T15:37:32.783Z,4.75
2022-12-23T15:40:09.955Z,3.17
2022-12-23T15:42:47.280Z,2.25
2022-12-23T15:45:43.957Z,2.40
2022-12-23T15:48:25.145Z,1.35
2022-12-23T15:50:56.975Z,1.50
2022-12-23T15:53:31.554Z,2.35
2022-12-23T15:56:01.617Z,1.92
2022-12-23T15:58:33.530Z,0.95
2022-12-23T16:01:02.954Z,1.35
2022-12-23T16:03:35.856Z,1.73
2022-12-23T16:06:09.094Z,1.83
2022-12-23T16:08:37.440Z,4.38
2022-12-23T16:11:13.494Z,3.70
2022-12-23T16:13:47.372Z,1.35
2022-12-23T16:16:40.361Z,2.45
2022-12-23T16:19:37.720Z,2.38
2022-12-23T16:22:08.179Z,3.42
2022-12-23T16:24:36.472Z,3.42
2022-12-23T16:27:04.931Z,2.20
2022-12-23T16:29:34.496Z,4.53
2022-12-23T16:32:03.959Z,1.77
2022-12-23T16:34:32.587Z,2.00
2022-12-23T16:37:00.572Z,1.20
2022-12-23T16:39:28.527Z,1.90
2022-12-23T16:41:56.477Z,1.55
2022-12-23T16:44:24.479Z,2.20
2022-12-23T16:46:53.231Z,2.60
2022-12-23T16:49:28.135Z,4.20
2022-12-23T16:51:59.472Z,6.40
2022-12-23T16:54:27.450Z,12.20
2022-12-23T16:56:55.484Z,12.23
2022-12-23T16:59:24.890Z,7.53
2022-12-23T17:01:58.023Z,4.97
2022-12-23T17:04:30.709Z,5.35
2022-12-23T17:06:58.614Z,5.38
2022-12-23T17:09:26.652Z,4.65
2022-12-23T17:11:55.249Z,2.67
2022-12-23T17:14:23.979Z,4.10
2022-12-23T17:16:52.600Z,2.45
2022-12-23T17:19:27.936Z,2.65
2022-12-23T17:22:02.284Z,20.52
2022-12-23T17:24:31.299Z,10.30
2022-12-23T17:26:59.293Z,4.20
2022-12-23T17:29:28.369Z,2.60
2022-12-23T17:31:56.493Z,6.13
2022-12-23T17:34:25.715Z,13.40
2022-12-23T17:36:54.205Z,5.85
2022-12-23T17:39:23.658Z,2.80
2022-12-23T17:41:52.111Z,4.40
2022-12-23T17:44:20.308Z,3.00
2022-12-23T17:46:48.621Z,3.47
2022-12-23T17:49:16.632Z,4.20
2022-12-23T17:51:44.765Z,4.25
2022-12-23T17:54:24.087Z,3.42
2022-12-23T17:56:52.947Z,2.08
2022-12-23T17:59:21.468Z,3.38
2022-12-23T18:01:49.637Z,2.60
2022-12-23T18:04:17.727Z,2.33
2022-12-23T18:06:45.715Z,1.60
2022-12-23T18:09:13.734Z,3.78
2022-12-23T18:11:45.917Z,2.17
2022-12-23T18:14:18.765Z,2.03
2022-12-23T18:16:46.916Z,1.60
2022-12-23T18:19:18.884Z,1.90
2022-12-23T18:21:47.699Z,1.48
2022-12-23T18:24:16.035Z,2.50
2022-12-23T18:26:46.220Z,4.18
2022-12-23T18:29:14.165Z,2.58
2022-12-23T18:31:51.462Z,1.52
2022-12-23T18:34:21.510Z,1.95
2022-12-23T18:36:51.758Z,1.08
2022-12-23T18:39:20.253Z,1.00
2022-12-23T18:41:50.023Z,2.65
2022-12-23T18:44:20.697Z,1.55
2022-12-23T18:46:49.396Z,1.98
2022-12-23T18:49:17.570Z,1.30
2022-12-23T18:51:46.024Z,0.70
2022-12-23T18:54:15.284Z,1.63
2022-12-23T18:56:43.436Z,0.75
2022-12-23T18:59:21.425Z,1.35
2022-12-23T19:01:56.156Z,2.30
2022-12-23T19:04:24.433Z,2.42
2022-12-23T19:06:52.403Z,1.52
2022-12-23T19:09:23.001Z,1.08
2022-12-23T19:11:52.789Z,1.30
2022-12-23T19:14:22.279Z,2.22
2022-12-23T19:16:52.439Z,3.90
2022-12-23T19:19:21.222Z,0.82
2022-12-23T19:21:49.212Z,2.03
2022-12-23T19:24:17.171Z,1.85
2022-12-23T19:26:45.104Z,2.33
2022-12-23T19:29:13.194Z,1.23
2022-12-23T19:31:42.657Z,1.17
2022-12-23T19:34:15.124Z,0.85
2022-12-23T19:36:44.567Z,1.17
2022-12-23T19:39:16.801Z,0.85
2022-12-23T19:41:45.734Z,2.13
2022-12-23T19:44:13.810Z,2.20
2022-12-23T19:46:43.308Z,1.00
2022-12-23T19:49:17.463Z,1.23
2022-12-23T19:51:48.213Z,1.08
2022-12-23T19:54:16.395Z,1.42
2022-12-23T19:56:44.780Z,1.08
2022-12-23T19:59:13.906Z,1.83
2022-12-23T20:01:43.340Z,0.93
2022-12-23T20:04:11.410Z,1.17
2022-12-23T20:06:40.106Z,0.98
2022-12-23T20:09:09.652Z,1.17
2022-12-23T20:11:39.493Z,1.60
2022-12-23T20:14:07.879Z,2.22
2022-12-23T20:16:37.207Z,0.93
2022-12-23T20:19:07.279Z,0.80
2022-12-23T20:21:37.377Z,0.95
2022-12-23T20:24:05.922Z,0.65
2022-12-23T20:26:34.225Z,1.85
2022-12-23T20:29:02.355Z,0.80
2022-12-23T20:31:32.988Z,1.33
2022-12-23T20:34:02.605Z,0.63
2022-12-23T20:36:33.426Z,0.68
2022-12-23T20:39:03.488Z,0.77
2022-12-23T20:41:32.912Z,1.23
2022-12-23T20:46:49.381Z,0.82
2022-12-23T20:49:17.318Z,0.75
2022-12-23T20:51:46.657Z,1.30
2022-12-23T20:54:14.683Z,0.88
2022-12-23T20:56:42.683Z,0.50
2022-12-23T20:59:10.705Z,0.55
2022-12-23T21:01:40.441Z,0.40
2022-12-23T21:04:11.513Z,0.52
2022-12-23T21:06:40.060Z,0.73
2022-12-23T21:09:12.368Z,1.48
2022-12-23T21:11:43.036Z,1.10
2022-12-23T21:14:11.666Z,1.75
2022-12-23T21:16:40.532Z,6.13
2022-12-23T21:19:17.671Z,1.38
2022-12-23T21:21:46.678Z,2.05
2022-12-23T21:24:16.629Z,1.33
2022-12-23T21:26:49.008Z,2.65
2022-12-23T21:29:22.379Z,2.80
2022-12-23T21:31:50.535Z,3.83
2022-12-23T21:34:18.440Z,2.22
2022-12-23T21:36:46.467Z,5.10
2022-12-23T21:39:17.092Z,1.65
2022-12-23T21:41:45.912Z,8.40
2022-12-23T21:44:15.019Z,1.90
2022-12-23T21:46:43.229Z,1.20
2022-12-23T21:49:11.845Z,3.22
2022-12-23T21:51:41.309Z,7.97
2022-12-23T21:54:11.128Z,3.10
2022-12-23T21:56:41.766Z,3.55
2022-12-23T21:59:12.837Z,8.65
2022-12-23T22:01:41.722Z,18.27
2022-12-23T22:04:09.991Z,11.77
2022-12-23T22:06:39.886Z,12.35
2022-12-23T22:09:08.944Z,18.35
2022-12-23T22:11:38.200Z,28.20
2022-12-23T22:14:09.807Z,16.92
2022-12-23T22:16:37.857Z,24.45
2022-12-23T22:19:08.642Z,21.10
2022-12-23T22:21:39.546Z,15.25
2022-12-23T22:24:08.683Z,10.65
2022-12-23T22:26:36.799Z,7.20
2022-12-23T22:29:07.672Z,5.20
2022-12-23T22:31:38.395Z,7.70
2022-12-23T22:34:07.760Z,6.10
2022-12-23T22:36:36.045Z,5.20
2022-12-23T22:39:05.912Z,3.33
2022-12-23T22:41:35.539Z,2.83
2022-12-23T22:44:03.530Z,3.08
2022-12-23T22:46:33.170Z,2.20
2022-12-23T22:49:01.097Z,3.85
2022-12-23T22:51:31.084Z,1.60
2022-12-23T22:53:59.724Z,3.28
2022-12-23T22:56:27.901Z,2.00
2022-12-23T22:58:56.104Z,1.75
2022-12-23T23:01:26.844Z,1.85
2022-12-23T23:03:59.284Z,1.60
2022-12-23T23:06:28.887Z,1.73
2022-12-23T23:08:58.049Z,2.90
2022-12-23T23:11:27.459Z,1.88
2022-12-23T23:13:56.328Z,1.48
2022-12-23T23:16:24.748Z,3.22
2022-12-23T23:18:53.807Z,2.13
2022-12-23T23:21:23.608Z,1.35
2022-12-23T23:23:51.544Z,1.30
2022-12-23T23:26:20.909Z,0.80
2022-12-23T23:28:49.213Z,3.30
2022-12-23T23:31:41.305Z,1.02
2022-12-23T23:34:05.278Z,1.40
2022-12-23T23:36:34.759Z,1.75
2022-12-23T23:39:02.695Z,1.23
2022-12-23T23:41:30.674Z,0.95
2022-12-23T23:43:58.612Z,1.13
2022-12-23T23:46:26.738Z,2.38
2022-12-23T23:48:54.855Z,1.35
2022-12-23T23:51:22.886Z,1.75
2022-12-23T23:53:52.265Z,1.35
2022-12-23T23:56:25.123Z,2.05
2022-12-23T23:58:53.968Z,0.93
